Aktualne dane pomiarowe

Uwaga, wersja testowa! Automatyczne pobieranie danych za pomocą narzędzi lub skryptów to umożliwiających jest zabronione.

Dane meteo z obszaru Polski uzyskane na podstawie depesz SYNOP pobieranych co godzinę z NWS. Najedź myszką na symbol przedstawiony w tabeli, aby uzyskać informacje co do jego znaczenia. Prosimy pamiętać, że to testowa wersja strony, która jeszcze nie jest ukończona. Stworzono również jest krótki FAQ dotyczący korzystania z tej podstrony Anomalie temperatury w chwili obecnej odniesione są do okresu referencyjnego 1951-2016. Okres ten będzie później zmieniony na 1981-2010. Kliknij ikonę aby pobrać plik CSV. Kliknij ikonę aby wygenerować mapę synoptyczną dla danego terminu.

Wybierz Datę:    

        

Tomaszów Mazowiecki (12466)

Dane terminowe dla wybranej stacji. Kliknij datę, aby otrzymać dane z tego terminu dla wszystkich stacji.

TemperaturaZachmurzenieWiatrCiśnienieOpadyPogoda
 Data t td wb tx tn tg rh  Nt Nl Cl Cm Ch ws wd g1 g2 wx mslp ppp ch 24h 12h t ww ww w1 w2  
2019-08-08 23:00:00 16.7 11.9 13.6--- 7310.0wx-wxwx1wx---1012.6 991.0 0.9---------
2019-08-08 22:00:00 17.5 12.0 14.0--- 7010.0wx-wxwx2wx---1012.3 990.8 0.8---------
2019-08-08 21:00:00 18.7 12.0 14.5--- 6510.0wx-wxwx2wx---1011.8 990.4 0.5---------
2019-08-08 20:00:00 19.8 11.1 14.5--- 5710.0wx-wxwx2wx---1011.5 990.2 0.6---------
2019-08-08 19:00:00 21.2 10.7 14.9--- 5110.0wxwxwxwx3wx---1011.2 990.0 0.5---------
2019-08-08 18:00:00 23.1 10.2 15.5--- 4410.0wxwxwxwx3wx---1011.0 989.9 0.2---------
2019-08-08 17:00:00 24.9 10.0 16.1--- 3910.0wxwxwxwx3wx---1010.5 989.6 -0.2---------
2019-08-08 16:00:00 25.2 9.1 15.9--- 3610.0wxwxwxwx4wx---1010.4 989.5 -0.2---------
2019-08-08 15:00:00 25.3 10.0 16.3--- 3810.0wxwxwxwx4wx---1010.5 989.6 -0.1---------
2019-08-08 14:00:00 24.4 10.2 16.0--- 4110.0wxwxwx4wx---1010.8 989.8 0.4---------
2019-08-08 13:00:00 24.4 9.2 15.6--- 3810.0wxwxwx6wx---1010.7 989.7 0.6---------
2019-08-08 12:00:00 24.2 10.5 16.1--- 4210.0wxwxwx5wx---1010.7 989.7 1.2---------
2019-08-08 11:00:00 23.5 12.2 16.6--- 4910.0wxwxwx5wx---1010.4 989.4 1.4---------
2019-08-08 10:00:00 23.2 11.9 16.3--- 4910.0wxwxwx6wx---1010.0 989.0 1.5---------
2019-08-08 09:00:00 22.3 12.9 16.4--- 5510.0wxwxwx7wx12--1009.7 988.6 1.6---------
2019-08-08 08:00:00 21.6 14.5 17.0--- 6410.0wxwxwx5wx---1009.1 988.0 2.0---------
2019-08-08 07:00:00 19.9 16.0 17.2--- 7810.0wxwxwxwx4wx---1008.7 987.5 2.0---------
2019-08-08 06:00:00 18.6 16.9 17.4--- 908.0wxwxwx4wx---1008.3 987.0 2.0---wx---
2019-08-08 05:00:00 17.7 17.1 17.3--- 968.0wxwxwx3wx---1007.5 986.1 1.4---wx---
2019-08-08 04:00:00 17.4 16.9 17.0--- 9710.0wxwxwx4wx---1007.0 985.6 0.9---------
2019-08-08 03:00:00 17.6 17.0 17.2--- 9610.0wxwxwxwx3wx---1006.5 985.1 0.1---------
2019-08-08 02:00:00 18.0 17.5 17.6--- 97---2wx---1006.0 984.7----------
2019-08-08 01:00:00 18.4 17.8 18.0--- 96---2wx---1006.0 984.7----------
2019-08-08 00:00:00 18.8 18.0 18.2--- 95---2wx---1006.3 985.0----------
2019-08-07 23:00:00 19.7 19.0 19.2--- 96---2wx---1006.0 984.8----------
2019-08-07 22:00:00 20.0 18.8 19.1--- 93---2wx---1006.1 984.9----wx-----
2019-08-07 21:00:00 21.5 16.7 18.2--- 7410.0wx-wx3wx---1005.2 984.2 -0.7---------
2019-08-07 20:00:00 21.7 16.7 18.3--- 7310.0wx-wxwx2wx---1005.4 984.4 -1.1---------
2019-08-07 19:00:00 21.9 15.7 17.8--- 6810.0wxwxwxwxwx1wx---1005.9 984.9 -0.6---------
2019-08-07 18:00:00 23.7 15.5 18.4--- 6010.0wxwxwxwx1wx---1005.8 984.9 -1.1---------
2019-08-07 17:00:00 25.3 14.8 18.6--- 5210.0wxwxwxwx2wx---1006.3 985.5 -0.8---------
2019-08-07 16:00:00 26.3 14.8 19.0--- 4910.0wxwxwxwx3wx---1006.2 985.5 -1.1---------
2019-08-07 15:00:00 25.6 15.3 19.0--- 5310.0wxwxwxwx3wx---1006.9 986.1 -1.0---------
2019-08-07 14:00:00 25.8 15.8 19.3--- 5410.0wxwxwxwx2wx---1007.1 986.3 -1.6---------
2019-08-07 13:00:00 25.2 15.9 19.1--- 5610.0wx-wxwx1wx---1007.3 986.5 -1.7---------
2019-08-07 12:00:00 24.2 15.7 18.7--- 5910.0wxwxwxwxwx3wx---1008.0 987.1 -1.0---------
2019-08-07 11:00:00 23.0 15.8 18.3--- 6410.0wxwxwxwx2wx---1008.9 987.9 -0.1---------
2019-08-07 10:00:00 22.7 16.3 18.4--- 6710.0wxwxwxwx2wx---1009.2 988.2 0.6---------
2019-08-07 09:00:00 21.9 16.9 18.5--- 7310.0wx-wxwx2wx---1009.1 988.0 0.6---------
2019-08-07 08:00:00 20.9 17.1 18.3--- 7910.0wx-wxwx2wx---1009.2 988.0 0.4---------
2019-08-07 07:00:00 20.1 17.7 18.4--- 8610.0wx-wxwx2wx---1008.8 987.6 0.2---------
2019-08-07 06:00:00 19.0 17.3 17.8--- 9010.0wx-wxwx1wx---1008.8 987.5 0.6---------
2019-08-07 05:00:00 17.9 16.8 17.1--- 9310.0wx-wxwx1wx---1009.1 987.7 0.5---------
2019-08-07 04:00:00 17.6 16.8 17.0--- 958.0wx-wxwx2wx---1008.8 987.4 0.1---wx---
2019-08-07 03:00:00 17.6 17.0 17.2--- 965.0wxwxwxwx2wx---1008.3 986.9 -0.9---wx---
2019-08-07 02:00:00 17.9 16.9 17.2--- 94---1wx---1008.6 987.2----------
2019-08-07 01:00:00 17.8 17.0 17.2--- 95---0wx---1008.6 987.2----------
2019-08-07 00:00:00 18.3 16.8 17.2--- 91---2wx---1009.1 987.7----wx-----
1.5 ms

 

Print Friendly, PDF & Email